createdAt,value
2018-09-25T00:01:50.682Z,94.10
2018-09-25T00:04:25.429Z,96.50
2018-09-25T00:06:59.577Z,96.30
2018-09-25T00:09:33.878Z,94.10
2018-09-25T00:12:08.189Z,97.30
2018-09-25T00:14:42.491Z,96.50
2018-09-25T00:17:17.842Z,95.90
2018-09-25T00:19:52.161Z,95.90
2018-09-25T00:22:26.570Z,95.80
2018-09-25T00:25:01.621Z,95.60
2018-09-25T00:27:36.661Z,95.90
2018-09-25T00:30:11.850Z,95.40
2018-09-25T00:32:45.997Z,95.60
2018-09-25T00:35:20.310Z,95.50
2018-09-25T00:37:54.517Z,96.50
2018-09-25T00:40:28.883Z,95.40
2018-09-25T00:43:03.597Z,95.80
2018-09-25T00:45:38.422Z,95.90
2018-09-25T00:48:12.776Z,95.80
2018-09-25T00:50:50.042Z,97.40
2018-09-25T00:53:24.529Z,96.30
2018-09-25T00:55:58.974Z,96.00
2018-09-25T00:58:33.282Z,97.70
2018-09-25T01:01:08.142Z,96.60
2018-09-25T01:03:42.403Z,97.10
2018-09-25T01:06:16.780Z,97.00
2018-09-25T01:08:51.020Z,97.50
2018-09-25T01:11:26.831Z,96.80
2018-09-25T01:14:01.106Z,98.40
2018-09-25T01:16:36.189Z,97.50
2018-09-25T01:19:10.639Z,98.10
2018-09-25T01:21:45.665Z,97.30
2018-09-25T01:24:20.127Z,98.20
2018-09-25T01:26:54.350Z,97.80
2018-09-25T01:29:28.730Z,97.70
2018-09-25T01:32:02.802Z,98.20
2018-09-25T01:34:36.886Z,99.20
2018-09-25T01:37:11.165Z,98.70
2018-09-25T01:39:45.435Z,99.30
2018-09-25T01:42:19.645Z,98.30
2018-09-25T01:44:54.498Z,99.90
2018-09-25T01:47:28.752Z,97.80
2018-09-25T01:50:03.102Z,99.50
2018-09-25T01:52:37.360Z,99.90
2018-09-25T01:55:12.321Z,99.20
2018-09-25T01:57:47.430Z,99.90
2018-09-25T02:00:21.841Z,99.90
2018-09-25T02:02:56.233Z,99.90
2018-09-25T02:05:31.229Z,99.80
2018-09-25T02:08:05.458Z,99.90
2018-09-25T02:10:39.622Z,99.90
2018-09-25T02:13:13.845Z,99.90
2018-09-25T02:15:48.276Z,99.90
2018-09-25T02:18:23.493Z,99.90
2018-09-25T02:20:57.613Z,99.90
2018-09-25T02:23:32.197Z,99.90
2018-09-25T02:26:06.429Z,99.90
2018-09-25T02:28:40.586Z,99.90
2018-09-25T02:31:14.891Z,99.90
2018-09-25T02:33:50.302Z,99.90
2018-09-25T02:36:24.666Z,99.90
2018-09-25T02:38:58.766Z,99.90
2018-09-25T02:41:33.149Z,99.90
2018-09-25T02:44:07.364Z,99.90
2018-09-25T02:46:41.622Z,99.90
2018-09-25T02:49:15.980Z,99.90
2018-09-25T02:51:50.373Z,99.90
2018-09-25T02:54:24.438Z,99.90
2018-09-25T02:56:58.994Z,99.90
2018-09-25T02:59:33.319Z,99.90
2018-09-25T03:02:07.487Z,99.90
2018-09-25T03:04:41.585Z,99.90
2018-09-25T03:07:16.546Z,99.90
2018-09-25T03:09:51.358Z,99.90
2018-09-25T03:12:25.393Z,99.90
2018-09-25T03:15:00.318Z,99.90
2018-09-25T03:17:34.437Z,99.90
2018-09-25T03:20:08.489Z,99.90
2018-09-25T03:22:42.665Z,99.90
2018-09-25T03:25:16.768Z,99.90
2018-09-25T03:27:51.580Z,99.90
2018-09-25T03:30:26.542Z,99.90
2018-09-25T03:33:00.661Z,99.90
2018-09-25T03:35:35.019Z,99.90
2018-09-25T03:38:09.173Z,99.90
2018-09-25T03:40:44.026Z,99.90
2018-09-25T03:43:18.186Z,99.90
2018-09-25T03:45:52.599Z,99.90
2018-09-25T03:48:26.783Z,99.90
2018-09-25T03:51:01.576Z,99.90
2018-09-25T03:53:35.803Z,99.90
2018-09-25T03:56:10.970Z,99.90
2018-09-25T03:58:45.465Z,99.90
2018-09-25T04:01:19.746Z,99.90
2018-09-25T04:03:54.733Z,99.90
2018-09-25T04:06:29.865Z,99.90
2018-09-25T04:09:05.018Z,99.90
2018-09-25T04:11:40.282Z,99.90
2018-09-25T04:14:14.574Z,99.90
2018-09-25T04:16:51.004Z,99.90
2018-09-25T04:19:25.333Z,99.90
2018-09-25T04:21:59.650Z,99.90
2018-09-25T04:24:33.996Z,99.90
2018-09-25T04:27:08.390Z,99.90
2018-09-25T04:29:42.562Z,99.90
2018-09-25T04:32:16.827Z,99.90
2018-09-25T04:34:50.962Z,99.90
2018-09-25T04:37:25.285Z,99.90
2018-09-25T04:39:59.711Z,99.90
2018-09-25T04:42:35.164Z,99.90
2018-09-25T04:45:09.948Z,99.90
2018-09-25T04:47:45.212Z,99.90
2018-09-25T04:50:19.680Z,99.90
2018-09-25T04:52:56.397Z,99.90
2018-09-25T04:55:31.159Z,99.90
2018-09-25T04:58:07.483Z,99.90
2018-09-25T05:00:41.581Z,99.90
2018-09-25T05:03:16.422Z,99.90
2018-09-25T05:05:50.769Z,99.90
2018-09-25T05:08:25.479Z,99.90
2018-09-25T05:10:59.709Z,99.90
2018-09-25T05:13:33.950Z,99.90
2018-09-25T05:16:08.105Z,99.90
2018-09-25T05:18:43.173Z,99.90
2018-09-25T05:21:17.469Z,99.90
2018-09-25T05:23:51.714Z,99.90
2018-09-25T05:26:26.500Z,99.90
2018-09-25T05:29:00.978Z,99.90
2018-09-25T05:31:36.223Z,99.90
2018-09-25T05:34:10.459Z,99.90
2018-09-25T05:36:44.590Z,99.90
2018-09-25T05:39:21.644Z,99.90
2018-09-25T05:41:56.718Z,99.90
2018-09-25T05:44:31.046Z,99.90
2018-09-25T05:47:05.346Z,99.90
2018-09-25T05:49:40.459Z,99.90
2018-09-25T05:52:14.800Z,99.90
2018-09-25T05:54:49.126Z,99.90
2018-09-25T05:57:23.575Z,99.90
2018-09-25T05:59:57.793Z,99.90
2018-09-25T06:02:31.941Z,99.90
2018-09-25T06:05:06.798Z,99.90
2018-09-25T06:07:41.194Z,99.90
2018-09-25T06:10:15.342Z,99.90
2018-09-25T06:12:49.519Z,99.90
2018-09-25T06:15:23.647Z,99.90
2018-09-25T06:17:57.789Z,99.90
2018-09-25T06:20:31.923Z,99.90
2018-09-25T06:23:06.383Z,99.90
2018-09-25T06:25:40.853Z,99.90
2018-09-25T06:28:16.272Z,99.90
2018-09-25T06:30:52.171Z,99.90
2018-09-25T06:33:26.815Z,99.90
2018-09-25T06:36:02.218Z,99.90
2018-09-25T06:38:36.493Z,99.90
2018-09-25T06:41:10.835Z,99.90
2018-09-25T06:43:44.884Z,99.90
2018-09-25T06:46:18.987Z,99.90
2018-09-25T06:48:53.081Z,99.90
2018-09-25T06:51:28.675Z,99.90
2018-09-25T06:54:02.939Z,99.90
2018-09-25T06:56:37.148Z,99.90
2018-09-25T06:59:11.345Z,99.90
2018-09-25T07:01:45.681Z,99.90
2018-09-25T07:04:19.946Z,99.90
2018-09-25T07:06:54.117Z,99.90
2018-09-25T07:09:28.437Z,99.90
2018-09-25T07:12:02.754Z,99.90
2018-09-25T07:14:37.065Z,99.90
2018-09-25T07:17:12.274Z,99.90
2018-09-25T07:19:47.097Z,99.90
2018-09-25T07:22:21.865Z,99.90
2018-09-25T07:24:56.014Z,99.90
2018-09-25T07:27:30.899Z,99.90
2018-09-25T07:30:05.114Z,99.90
2018-09-25T07:32:39.333Z,99.90
2018-09-25T07:35:14.326Z,99.90
2018-09-25T07:37:51.202Z,99.90
2018-09-25T07:40:25.367Z,98.60
2018-09-25T07:43:00.489Z,99.90
2018-09-25T07:45:34.790Z,99.90
2018-09-25T07:48:09.042Z,99.90
2018-09-25T07:50:43.357Z,99.70
2018-09-25T07:53:17.723Z,99.00
2018-09-25T07:55:52.024Z,97.70
2018-09-25T07:58:26.243Z,96.40
2018-09-25T08:01:00.641Z,96.60
2018-09-25T08:03:34.936Z,97.10
2018-09-25T08:06:09.122Z,99.90
2018-09-25T08:08:43.370Z,99.00
2018-09-25T08:11:17.397Z,97.00
2018-09-25T08:13:51.585Z,97.80
2018-09-25T08:16:25.619Z,97.70
2018-09-25T08:19:00.570Z,97.30
2018-09-25T08:21:34.685Z,96.70
2018-09-25T08:24:09.086Z,94.00
2018-09-25T08:26:43.250Z,95.00
2018-09-25T08:29:17.646Z,94.10
2018-09-25T08:31:51.758Z,91.60
2018-09-25T08:34:25.883Z,89.80
2018-09-25T08:37:00.083Z,93.20
2018-09-25T08:39:34.373Z,89.60
2018-09-25T08:42:08.618Z,88.30
2018-09-25T08:44:44.099Z,82.70
2018-09-25T08:47:18.414Z,85.30
2018-09-25T08:49:52.654Z,82.70
2018-09-25T08:52:26.943Z,82.80
2018-09-25T08:55:01.207Z,84.10
2018-09-25T08:57:35.527Z,80.60
2018-09-25T09:00:10.399Z,84.60
2018-09-25T09:02:44.778Z,86.20
2018-09-25T09:05:19.040Z,77.50
2018-09-25T09:07:53.227Z,78.20
2018-09-25T09:10:27.650Z,75.10
2018-09-25T09:13:01.932Z,64.50
2018-09-25T09:15:36.182Z,64.00
2018-09-25T09:18:10.552Z,68.10
2018-09-25T09:20:44.720Z,69.80
2018-09-25T09:23:18.997Z,68.60
2018-09-25T09:25:53.172Z,72.90
2018-09-25T09:28:28.427Z,67.40
2018-09-25T09:31:02.825Z,66.70
2018-09-25T09:33:37.183Z,63.50
2018-09-25T09:36:11.363Z,69.00
2018-09-25T09:38:45.686Z,65.10
2018-09-25T09:41:19.821Z,59.60
2018-09-25T09:43:54.037Z,57.00
2018-09-25T09:46:28.281Z,57.00
2018-09-25T09:49:02.651Z,58.70
2018-09-25T09:51:36.949Z,56.40
2018-09-25T09:54:11.218Z,59.20
2018-09-25T09:56:45.658Z,56.50
2018-09-25T09:59:19.833Z,56.50
2018-09-25T10:01:54.070Z,51.50
2018-09-25T10:04:28.205Z,58.80
2018-09-25T10:07:02.412Z,58.00
2018-09-25T10:09:36.750Z,55.80
2018-09-25T10:12:11.229Z,52.40
2018-09-25T10:14:45.694Z,53.60
2018-09-25T10:17:20.118Z,53.30
2018-09-25T10:19:54.497Z,55.80
2018-09-25T10:22:28.882Z,55.80
2018-09-25T10:25:02.998Z,49.90
2018-09-25T10:27:37.413Z,50.90
2018-09-25T10:30:11.964Z,47.40
2018-09-25T10:32:46.030Z,46.80
2018-09-25T10:35:20.262Z,48.70
2018-09-25T10:37:54.612Z,47.50
2018-09-25T10:40:29.018Z,49.00
2018-09-25T10:43:03.249Z,46.20
2018-09-25T10:45:37.598Z,48.00
2018-09-25T10:48:12.709Z,46.90
2018-09-25T10:50:46.972Z,53.10
2018-09-25T10:53:21.056Z,46.60
2018-09-25T10:55:55.599Z,46.40
2018-09-25T10:58:29.684Z,45.10
2018-09-25T11:01:03.934Z,48.00
2018-09-25T11:03:38.151Z,45.50
2018-09-25T11:06:12.665Z,49.70
2018-09-25T11:08:47.215Z,49.80
2018-09-25T11:11:21.477Z,47.20
2018-09-25T11:13:55.839Z,47.50
2018-09-25T11:16:30.178Z,48.00
2018-09-25T11:19:04.373Z,48.90
2018-09-25T11:21:38.582Z,50.40
2018-09-25T11:24:12.757Z,47.70
2018-09-25T11:26:47.119Z,51.70
2018-09-25T11:29:21.414Z,49.60
2018-09-25T11:31:55.510Z,48.00
2018-09-25T11:34:29.749Z,50.60
2018-09-25T11:37:03.832Z,45.00
2018-09-25T11:39:37.985Z,46.10
2018-09-25T11:42:12.378Z,50.10
2018-09-25T11:44:46.624Z,50.60
2018-09-25T11:47:20.757Z,51.80
2018-09-25T11:49:55.051Z,53.80
2018-09-25T11:52:29.297Z,55.30
2018-09-25T11:55:03.318Z,53.10
2018-09-25T11:57:38.209Z,53.00
2018-09-25T12:00:12.541Z,52.10
2018-09-25T12:02:46.837Z,53.50
2018-09-25T12:05:20.970Z,49.60
2018-09-25T12:07:55.181Z,49.70
2018-09-25T12:10:29.519Z,51.50
2018-09-25T12:13:03.717Z,50.10
2018-09-25T12:15:37.990Z,49.20
2018-09-25T12:18:12.420Z,50.50
2018-09-25T12:20:46.585Z,52.10
2018-09-25T12:23:20.996Z,55.10
2018-09-25T12:25:55.329Z,52.30
2018-09-25T12:28:30.821Z,50.10
2018-09-25T12:31:04.822Z,51.00
2018-09-25T12:33:39.053Z,49.40
2018-09-25T12:36:13.342Z,45.40
2018-09-25T12:38:47.704Z,46.90
2018-09-25T12:41:21.886Z,46.60
2018-09-25T12:43:55.973Z,47.10
2018-09-25T12:46:30.293Z,48.30
2018-09-25T12:49:04.658Z,48.00
2018-09-25T12:51:38.955Z,50.90
2018-09-25T12:54:13.178Z,50.80
2018-09-25T12:56:47.518Z,49.10
2018-09-25T12:59:21.719Z,50.30
2018-09-25T13:01:55.855Z,51.70
2018-09-25T13:04:30.111Z,54.80
2018-09-25T13:07:04.357Z,53.20
2018-09-25T13:09:38.595Z,55.40
2018-09-25T13:12:12.955Z,51.70
2018-09-25T13:14:47.268Z,54.00
2018-09-25T13:17:21.588Z,52.00
2018-09-25T13:19:55.824Z,52.70
2018-09-25T13:22:31.246Z,54.30
2018-09-25T13:25:05.364Z,52.00
2018-09-25T13:27:40.034Z,53.70
2018-09-25T13:30:16.824Z,50.80
2018-09-25T13:32:51.221Z,51.60
2018-09-25T13:35:25.306Z,49.30
2018-09-25T13:37:59.747Z,49.00
2018-09-25T13:40:34.042Z,48.10
2018-09-25T13:43:08.253Z,49.30
2018-09-25T13:45:42.535Z,49.40
2018-09-25T13:48:16.672Z,48.00
2018-09-25T13:50:50.919Z,49.40
2018-09-25T13:53:26.407Z,46.30
2018-09-25T13:56:00.603Z,49.00
2018-09-25T13:58:35.642Z,49.10
2018-09-25T14:01:09.796Z,46.30
2018-09-25T14:03:43.979Z,47.30
2018-09-25T14:06:18.824Z,48.50
2018-09-25T14:08:53.821Z,49.70
2018-09-25T14:11:30.348Z,49.00
2018-09-25T14:14:04.572Z,50.10
2018-09-25T14:16:38.659Z,48.10
2018-09-25T14:19:16.327Z,49.10
2018-09-25T14:21:50.469Z,52.40
2018-09-25T14:24:26.295Z,53.10
2018-09-25T14:27:02.238Z,53.40
2018-09-25T14:29:37.287Z,54.00
2018-09-25T14:32:12.198Z,52.50
2018-09-25T14:34:46.455Z,55.30
2018-09-25T14:37:21.512Z,53.70
2018-09-25T14:39:59.111Z,51.90
2018-09-25T14:42:33.918Z,51.20
2018-09-25T14:45:09.104Z,51.50
2018-09-25T14:47:43.529Z,49.80
2018-09-25T14:50:17.951Z,51.70
2018-09-25T14:52:53.287Z,50.00
2018-09-25T14:55:27.848Z,51.50
2018-09-25T14:58:04.048Z,52.40
2018-09-25T15:00:39.055Z,51.70
2018-09-25T15:03:14.966Z,50.30
2018-09-25T15:05:49.065Z,53.10
2018-09-25T15:08:23.453Z,48.10
2018-09-25T15:10:57.607Z,50.10
2018-09-25T15:13:33.017Z,52.50
2018-09-25T15:16:07.414Z,50.10
2018-09-25T15:18:41.796Z,50.70
2018-09-25T15:21:15.985Z,51.70
2018-09-25T15:23:50.373Z,51.90
2018-09-25T15:26:24.474Z,52.30
2018-09-25T15:28:59.454Z,51.40
2018-09-25T15:31:35.469Z,54.90
2018-09-25T15:34:09.879Z,51.40
2018-09-25T15:36:44.010Z,56.70
2018-09-25T15:39:18.289Z,53.70
2018-09-25T15:41:52.466Z,52.30
2018-09-25T15:44:26.923Z,52.90
2018-09-25T15:47:01.290Z,55.80
2018-09-25T15:49:35.395Z,54.80
2018-09-25T15:52:12.966Z,55.20
2018-09-25T15:54:47.191Z,56.10
2018-09-25T15:57:22.113Z,55.30
2018-09-25T16:00:00.111Z,57.70
2018-09-25T16:02:36.270Z,52.90
2018-09-25T16:05:12.569Z,58.50
2018-09-25T16:07:47.399Z,54.40
2018-09-25T16:10:24.758Z,56.90
2018-09-25T16:12:58.983Z,59.30
2018-09-25T16:15:34.123Z,56.40
2018-09-25T16:18:08.257Z,54.80
2018-09-25T16:20:42.347Z,61.30
2018-09-25T16:23:18.724Z,61.70
2018-09-25T16:25:53.722Z,57.40
2018-09-25T16:28:27.946Z,60.30
2018-09-25T16:31:02.383Z,57.00
2018-09-25T16:33:36.571Z,57.60
2018-09-25T16:36:10.838Z,61.30
2018-09-25T16:38:48.122Z,63.00
2018-09-25T16:41:22.378Z,60.50
2018-09-25T16:46:36.368Z,63.50
2018-09-25T16:49:11.319Z,60.20
2018-09-25T16:51:46.466Z,61.90
2018-09-25T16:54:20.655Z,61.30
2018-09-25T16:56:56.473Z,59.10
2018-09-25T16:59:31.419Z,58.70
2018-09-25T17:02:07.797Z,60.00
2018-09-25T17:04:50.680Z,62.30
2018-09-25T17:07:25.878Z,65.40
2018-09-25T17:10:01.865Z,65.80
2018-09-25T17:12:36.117Z,61.20
2018-09-25T17:15:11.411Z,64.00
2018-09-25T17:17:47.369Z,64.20
2018-09-25T17:20:22.207Z,69.50
2018-09-25T17:22:56.397Z,64.20
2018-09-25T17:28:12.425Z,61.90
2018-09-25T17:30:49.072Z,64.60
2018-09-25T17:33:26.935Z,65.60
2018-09-25T17:36:01.939Z,67.00
2018-09-25T17:38:36.158Z,67.00
2018-09-25T17:41:16.869Z,66.90
2018-09-25T17:43:51.534Z,68.20
2018-09-25T17:46:26.597Z,66.10
2018-09-25T17:49:00.815Z,70.30
2018-09-25T17:51:36.302Z,69.60
2018-09-25T17:54:12.990Z,67.90
2018-09-25T17:56:47.815Z,69.20
2018-09-25T17:59:22.672Z,69.90
2018-09-25T18:02:00.038Z,66.30
2018-09-25T18:04:37.311Z,71.30
2018-09-25T18:07:14.114Z,68.00
2018-09-25T18:09:50.761Z,70.60
2018-09-25T18:12:25.809Z,67.10
2018-09-25T18:14:59.910Z,69.00
2018-09-25T18:17:35.878Z,71.50
2018-09-25T18:20:14.140Z,69.20
2018-09-25T18:23:11.139Z,73.00
2018-09-25T18:25:45.238Z,68.90
2018-09-25T18:28:19.567Z,72.80
2018-09-25T18:30:53.720Z,71.60
2018-09-25T18:33:33.483Z,72.80
2018-09-25T18:36:07.499Z,74.90
2018-09-25T18:38:41.555Z,70.70
2018-09-25T18:41:15.727Z,70.90
2018-09-25T18:43:49.930Z,71.40
2018-09-25T18:46:24.016Z,69.00
2018-09-25T18:48:58.218Z,74.00
2018-09-25T18:51:32.702Z,70.80
2018-09-25T18:54:08.174Z,70.90
2018-09-25T18:56:42.391Z,75.90
2018-09-25T18:59:16.618Z,74.50
2018-09-25T19:01:50.968Z,73.00
2018-09-25T19:04:25.291Z,71.80
2018-09-25T19:06:59.440Z,75.00
2018-09-25T19:09:33.498Z,77.30
2018-09-25T19:12:08.026Z,74.10
2018-09-25T19:14:42.274Z,76.40
2018-09-25T19:17:16.387Z,75.40
2018-09-25T19:19:52.470Z,73.80
2018-09-25T19:22:26.697Z,79.00
2018-09-25T19:25:00.914Z,77.80
2018-09-25T19:27:35.411Z,78.60
2018-09-25T19:30:09.699Z,75.70
2018-09-25T19:32:44.465Z,81.60
2018-09-25T19:35:18.797Z,74.40
2018-09-25T19:37:53.126Z,76.70
2018-09-25T19:40:27.375Z,78.30
2018-09-25T19:43:08.598Z,76.50
2018-09-25T19:45:43.682Z,74.10
2018-09-25T19:48:17.693Z,73.50
2018-09-25T19:50:51.814Z,74.60
2018-09-25T19:53:25.882Z,75.50
2018-09-25T19:56:00.289Z,79.50
2018-09-25T19:58:34.468Z,79.90
2018-09-25T20:01:08.661Z,81.00
2018-09-25T20:03:43.014Z,81.90
2018-09-25T20:06:17.866Z,79.80
2018-09-25T20:08:53.122Z,81.20
2018-09-25T20:11:27.262Z,78.80
2018-09-25T20:14:03.538Z,80.50
2018-09-25T20:16:38.367Z,86.10
2018-09-25T20:19:12.612Z,83.70
2018-09-25T20:21:46.927Z,80.20
2018-09-25T20:24:21.522Z,88.70
2018-09-25T20:26:55.850Z,87.00
2018-09-25T20:29:32.105Z,84.50
2018-09-25T20:32:06.298Z,87.70
2018-09-25T20:34:40.482Z,87.90
2018-09-25T20:37:14.812Z,85.70
2018-09-25T20:39:48.877Z,87.10
2018-09-25T20:42:23.142Z,84.70
2018-09-25T20:44:59.197Z,83.40
2018-09-25T20:47:34.005Z,84.10
2018-09-25T20:50:08.123Z,87.00
2018-09-25T20:52:44.237Z,84.70
2018-09-25T20:55:18.935Z,86.30
2018-09-25T20:57:53.650Z,86.20
2018-09-25T21:00:27.969Z,89.30
2018-09-25T21:03:02.175Z,92.40
2018-09-25T21:05:36.458Z,90.40
2018-09-25T21:08:12.166Z,90.50
2018-09-25T21:10:46.352Z,91.20
2018-09-25T21:13:20.605Z,96.30
2018-09-25T21:15:55.501Z,91.70
2018-09-25T21:18:29.591Z,91.80
2018-09-25T21:21:03.798Z,92.90
2018-09-25T21:23:38.118Z,90.80
2018-09-25T21:26:12.385Z,90.70
2018-09-25T21:28:46.531Z,90.60
2018-09-25T21:31:20.710Z,94.40
2018-09-25T21:33:55.830Z,93.60
2018-09-25T21:36:30.162Z,94.10
2018-09-25T21:39:04.819Z,92.90
2018-09-25T21:41:39.121Z,92.90
2018-09-25T21:44:13.286Z,92.50
2018-09-25T21:46:47.453Z,93.10
2018-09-25T21:49:21.597Z,94.10
2018-09-25T21:51:56.028Z,95.40
2018-09-25T21:54:30.209Z,95.20
2018-09-25T21:57:05.188Z,94.80
2018-09-25T21:59:39.964Z,96.60
2018-09-25T22:02:16.511Z,95.90
2018-09-25T22:04:50.528Z,95.90
2018-09-25T22:07:24.869Z,95.20
2018-09-25T22:09:59.121Z,95.30
2018-09-25T22:12:38.135Z,95.30
2018-09-25T22:15:12.401Z,95.70
2018-09-25T22:20:27.394Z,95.60
2018-09-25T22:23:01.820Z,95.70
2018-09-25T22:25:38.983Z,96.50
2018-09-25T22:28:13.129Z,98.20
2018-09-25T22:30:47.276Z,99.40
2018-09-25T22:33:21.956Z,99.90
2018-09-25T22:35:56.182Z,99.90
2018-09-25T22:38:30.997Z,99.90
2018-09-25T22:41:09.169Z,99.90
2018-09-25T22:43:43.350Z,99.90
2018-09-25T22:46:17.657Z,99.90
2018-09-25T22:48:53.898Z,98.50
2018-09-25T22:51:27.961Z,98.90
2018-09-25T22:54:02.242Z,99.30
2018-09-25T22:56:36.398Z,99.70
2018-09-25T22:59:11.566Z,98.70
2018-09-25T23:01:46.010Z,98.60
2018-09-25T23:04:23.102Z,99.20
2018-09-25T23:06:57.915Z,99.20
2018-09-25T23:09:31.945Z,98.90
2018-09-25T23:12:06.274Z,99.80
2018-09-25T23:14:40.498Z,99.50
2018-09-25T23:17:14.788Z,99.30
2018-09-25T23:19:48.914Z,99.60
2018-09-25T23:22:22.999Z,99.00
2018-09-25T23:24:57.063Z,99.40
2018-09-25T23:27:31.345Z,99.30
2018-09-25T23:30:07.001Z,99.90
2018-09-25T23:32:41.300Z,99.90
2018-09-25T23:35:15.558Z,99.90
2018-09-25T23:37:57.082Z,99.50
2018-09-25T23:41:37.219Z,99.90
2018-09-25T23:44:28.673Z,99.80
2018-09-25T23:47:03.471Z,98.90
2018-09-25T23:51:47.369Z,99.10
2018-09-25T23:54:34.275Z,98.80
2018-09-25T23:57:10.146Z,99.90
2018-09-25T23:59:45.312Z,99.90
